sensor_id;sensor_type;location;lat;lon;timestamp;pressure;altitude;pressure_sealevel;temperature;humidity
18813;BME280;9534;51.140;6.296;2024-03-08T00:02:05;67132.63;;;3.91;100.00
18813;BME280;9534;51.140;6.296;2024-03-08T00:06:09;67138.94;;;3.89;100.00
18813;BME280;9534;51.140;6.296;2024-03-08T00:10:12;67133.59;;;3.89;100.00
18813;BME280;9534;51.140;6.296;2024-03-08T00:14:19;67115.44;;;3.73;100.00
18813;BME280;9534;51.140;6.296;2024-03-08T00:18:23;67120.69;;;3.80;100.00
18813;BME280;9534;51.140;6.296;2024-03-08T00:22:27;67123.38;;;3.80;100.00
18813;BME280;9534;51.140;6.296;2024-03-08T00:26:32;67121.53;;;3.76;100.00
18813;BME280;9534;51.140;6.296;2024-03-08T00:30:37;67115.72;;;3.69;100.00
18813;BME280;9534;51.140;6.296;2024-03-08T00:34:40;67110.06;;;3.73;100.00
18813;BME280;9534;51.140;6.296;2024-03-08T00:38:43;67106.38;;;3.66;100.00
18813;BME280;9534;51.140;6.296;2024-03-08T00:42:46;67090.66;;;3.54;100.00
18813;BME280;9534;51.140;6.296;2024-03-08T00:46:51;67096.56;;;3.55;100.00
18813;BME280;9534;51.140;6.296;2024-03-08T00:50:56;67098.13;;;3.54;100.00
18813;BME280;9534;51.140;6.296;2024-03-08T00:54:59;67094.72;;;3.51;100.00
18813;BME280;9534;51.140;6.296;2024-03-08T00:59:02;67081.75;;;3.49;100.00
18813;BME280;9534;51.140;6.296;2024-03-08T01:03:07;67091.63;;;3.53;100.00
18813;BME280;9534;51.140;6.296;2024-03-08T01:07:10;67079.72;;;3.42;100.00
18813;BME280;9534;51.140;6.296;2024-03-08T01:11:13;67082.59;;;3.45;100.00
18813;BME280;9534;51.140;6.296;2024-03-08T01:15:17;67074.66;;;3.38;100.00
18813;BME280;9534;51.140;6.296;2024-03-08T01:19:21;67074.75;;;3.31;100.00
18813;BME280;9534;51.140;6.296;2024-03-08T01:23:26;67066.00;;;3.28;100.00
18813;BME280;9534;51.140;6.296;2024-03-08T01:27:29;67052.81;;;3.14;100.00
18813;BME280;9534;51.140;6.296;2024-03-08T01:31:32;67044.47;;;3.09;100.00
18813;BME280;9534;51.140;6.296;2024-03-08T01:35:37;67064.38;;;3.19;100.00
18813;BME280;9534;51.140;6.296;2024-03-08T01:39:43;67058.31;;;3.16;100.00
18813;BME280;9534;51.140;6.296;2024-03-08T01:43:46;67051.41;;;3.17;100.00
18813;BME280;9534;51.140;6.296;2024-03-08T01:47:49;67052.38;;;3.16;100.00
18813;BME280;9534;51.140;6.296;2024-03-08T01:51:54;67035.56;;;3.03;100.00
18813;BME280;9534;51.140;6.296;2024-03-08T01:55:59;67041.78;;;3.09;100.00
18813;BME280;9534;51.140;6.296;2024-03-08T02:00:03;67039.91;;;3.05;100.00
18813;BME280;9534;51.140;6.296;2024-03-08T02:04:07;67032.72;;;3.01;100.00
18813;BME280;9534;51.140;6.296;2024-03-08T02:08:12;67036.13;;;3.04;100.00
18813;BME280;9534;51.140;6.296;2024-03-08T02:12:16;67025.91;;;2.95;100.00
18813;BME280;9534;51.140;6.296;2024-03-08T02:16:22;67033.53;;;2.97;100.00
18813;BME280;9534;51.140;6.296;2024-03-08T02:20:29;67013.03;;;2.86;100.00
18813;BME280;9534;51.140;6.296;2024-03-08T02:24:32;67008.78;;;2.77;100.00
18813;BME280;9534;51.140;6.296;2024-03-08T02:28:37;67005.38;;;2.74;100.00
18813;BME280;9534;51.140;6.296;2024-03-08T02:32:41;67005.53;;;2.77;100.00
18813;BME280;9534;51.140;6.296;2024-03-08T02:36:46;66997.59;;;2.70;100.00
18813;BME280;9534;51.140;6.296;2024-03-08T02:40:50;66985.16;;;2.59;100.00
18813;BME280;9534;51.140;6.296;2024-03-08T02:44:53;66989.69;;;2.63;100.00
18813;BME280;9534;51.140;6.296;2024-03-08T02:48:56;66988.56;;;2.62;100.00
18813;BME280;9534;51.140;6.296;2024-03-08T02:53:01;66983.84;;;2.55;100.00
18813;BME280;9534;51.140;6.296;2024-03-08T02:57:04;66986.69;;;2.58;100.00
18813;BME280;9534;51.140;6.296;2024-03-08T03:01:09;66974.66;;;2.45;100.00
18813;BME280;9534;51.140;6.296;2024-03-08T03:05:13;66965.75;;;2.40;100.00
18813;BME280;9534;51.140;6.296;2024-03-08T03:09:17;66969.72;;;2.43;100.00
18813;BME280;9534;51.140;6.296;2024-03-08T03:13:25;66974.66;;;2.45;100.00
18813;BME280;9534;51.140;6.296;2024-03-08T03:17:30;66979.91;;;2.52;100.00
18813;BME280;9534;51.140;6.296;2024-03-08T03:21:33;66964.78;;;2.41;100.00
18813;BME280;9534;51.140;6.296;2024-03-08T03:25:39;66966.47;;;2.43;100.00
18813;BME280;9534;51.140;6.296;2024-03-08T03:29:43;66964.38;;;2.43;100.00
18813;BME280;9534;51.140;6.296;2024-03-08T03:33:48;66966.31;;;2.40;100.00
18813;BME280;9534;51.140;6.296;2024-03-08T03:37:53;66960.25;;;2.37;100.00
18813;BME280;9534;51.140;6.296;2024-03-08T03:42:09;66962.91;;;2.37;100.00
18813;BME280;9534;51.140;6.296;2024-03-08T03:46:12;66970.25;;;2.44;100.00
18813;BME280;9534;51.140;6.296;2024-03-08T03:50:15;66960.25;;;2.37;100.00
18813;BME280;9534;51.140;6.296;2024-03-08T03:54:20;66956.28;;;2.34;100.00
18813;BME280;9534;51.140;6.296;2024-03-08T03:58:25;66964.47;;;2.36;100.00
18813;BME280;9534;51.140;6.296;2024-03-08T04:02:29;66957.25;;;2.32;100.00
18813;BME280;9534;51.140;6.296;2024-03-08T04:06:39;66960.06;;;2.35;100.00
18813;BME280;9534;51.140;6.296;2024-03-08T04:10:52;66966.72;;;2.38;100.00
18813;BME280;9534;51.140;6.296;2024-03-08T04:14:59;66966.72;;;2.38;100.00
18813;BME280;9534;51.140;6.296;2024-03-08T04:19:08;66968.59;;;2.42;100.00
18813;BME280;9534;51.140;6.296;2024-03-08T04:23:15;66957.97;;;2.35;100.00
18813;BME280;9534;51.140;6.296;2024-03-08T04:27:20;66959.13;;;2.36;100.00
18813;BME280;9534;51.140;6.296;2024-03-08T04:31:30;66942.44;;;2.26;100.00
18813;BME280;9534;51.140;6.296;2024-03-08T04:35:37;66948.34;;;2.27;100.00
18813;BME280;9534;51.140;6.296;2024-03-08T04:39:44;66947.06;;;2.23;100.00
18813;BME280;9534;51.140;6.296;2024-03-08T04:43:52;66943.25;;;2.22;100.00
18813;BME280;9534;51.140;6.296;2024-03-08T04:47:56;66945.22;;;2.19;100.00
18813;BME280;9534;51.140;6.296;2024-03-08T04:52:01;66955.41;;;2.28;100.00
18813;BME280;9534;51.140;6.296;2024-03-08T04:56:09;66948.06;;;2.22;100.00
18813;BME280;9534;51.140;6.296;2024-03-08T05:00:12;66945.38;;;2.22;100.00
18813;BME280;9534;51.140;6.296;2024-03-08T05:04:18;66944.94;;;2.24;100.00
18813;BME280;9534;51.140;6.296;2024-03-08T05:08:24;66942.53;;;2.19;100.00
18813;BME280;9534;51.140;6.296;2024-03-08T05:12:28;66938.00;;;2.15;100.00
18813;BME280;9534;51.140;6.296;2024-03-08T05:16:31;66936.47;;;2.16;100.00
18813;BME280;9534;51.140;6.296;2024-03-08T05:20:35;66931.94;;;2.12;100.00
18813;BME280;9534;51.140;6.296;2024-03-08T05:24:39;66936.31;;;2.14;100.00
18813;BME280;9534;51.140;6.296;2024-03-08T05:28:42;66934.78;;;2.15;100.00
18813;BME280;9534;51.140;6.296;2024-03-08T05:32:45;66934.63;;;2.12;100.00
18813;BME280;9534;51.140;6.296;2024-03-08T05:36:50;66926.28;;;2.07;100.00
18813;BME280;9534;51.140;6.296;2024-03-08T05:40:53;66932.75;;;2.08;100.00
18813;BME280;9534;51.140;6.296;2024-03-08T05:44:56;66923.59;;;2.07;100.00
18813;BME280;9534;51.140;6.296;2024-03-08T05:49:00;66926.84;;;2.08;100.00
18813;BME280;9534;51.140;6.296;2024-03-08T05:53:08;66930.09;;;2.08;100.00
18813;BME280;9534;51.140;6.296;2024-03-08T05:57:11;66921.03;;;2.00;100.00
18813;BME280;9534;51.140;6.296;2024-03-08T06:01:15;66924.28;;;2.01;100.00
18813;BME280;9534;51.140;6.296;2024-03-08T06:05:19;66912.88;;;1.98;100.00
18813;BME280;9534;51.140;6.296;2024-03-08T06:09:26;66916.34;;;1.94;100.00
18813;BME280;9534;51.140;6.296;2024-03-08T06:13:30;66909.00;;;1.87;100.00
18813;BME280;9534;51.140;6.296;2024-03-08T06:17:33;66912.38;;;1.90;100.00
18813;BME280;9534;51.140;6.296;2024-03-08T06:21:37;66908.44;;;1.87;100.00
18813;BME280;9534;51.140;6.296;2024-03-08T06:25:42;66912.38;;;1.90;100.00
18813;BME280;9534;51.140;6.296;2024-03-08T06:29:48;66918.75;;;1.98;100.00
18813;BME280;9534;51.140;6.296;2024-03-08T06:33:52;66928.53;;;2.09;100.00
18813;BME280;9534;51.140;6.296;2024-03-08T06:37:58;66928.53;;;2.09;100.00
18813;BME280;9534;51.140;6.296;2024-03-08T06:42:02;66935.03;;;2.10;100.00
18813;BME280;9534;51.140;6.296;2024-03-08T06:46:07;66953.69;;;2.27;100.00
18813;BME280;9534;51.140;6.296;2024-03-08T06:50:10;66964.78;;;2.41;100.00
18813;BME280;9534;51.140;6.296;2024-03-08T06:54:13;66973.00;;;2.53;100.00
18813;BME280;9534;51.140;6.296;2024-03-08T06:58:18;66996.88;;;2.67;100.00
18813;BME280;9534;51.140;6.296;2024-03-08T07:02:21;67004.97;;;2.76;100.00
18813;BME280;9534;51.140;6.296;2024-03-08T07:06:26;67020.25;;;2.90;100.00
18813;BME280;9534;51.140;6.296;2024-03-08T07:10:30;67037.25;;;3.05;100.00
18813;BME280;9534;51.140;6.296;2024-03-08T07:14:36;67046.31;;;3.13;100.00
18813;BME280;9534;51.140;6.296;2024-03-08T07:18:42;67072.94;;;3.36;100.00
18813;BME280;9534;51.140;6.296;2024-03-08T07:22:46;67087.13;;;3.49;100.00
18813;BME280;9534;51.140;6.296;2024-03-08T07:26:53;67114.31;;;3.72;100.00
18813;BME280;9534;51.140;6.296;2024-03-08T07:30:59;67128.19;;;3.80;100.00
18813;BME280;9534;51.140;6.296;2024-03-08T07:35:18;67154.00;;;4.07;100.00
18813;BME280;9534;51.140;6.296;2024-03-08T07:39:22;67191.28;;;4.38;100.00
18813;BME280;9534;51.140;6.296;2024-03-08T07:43:25;67196.38;;;4.42;100.00
18813;BME280;9534;51.140;6.296;2024-03-08T07:47:30;67223.19;;;4.68;100.00
18813;BME280;9534;51.140;6.296;2024-03-08T07:51:35;67258.38;;;4.99;100.00
18813;BME280;9534;51.140;6.296;2024-03-08T07:55:39;67315.16;;;5.49;100.00
18813;BME280;9534;51.140;6.296;2024-03-08T07:59:44;67278.25;;;5.16;100.00
18813;BME280;9534;51.140;6.296;2024-03-08T08:03:49;67350.66;;;5.85;100.00
18813;BME280;9534;51.140;6.296;2024-03-08T08:07:52;67335.19;;;5.69;100.00
18813;BME280;9534;51.140;6.296;2024-03-08T08:11:55;67390.16;;;6.14;100.00
18813;BME280;9534;51.140;6.296;2024-03-08T08:15:58;67418.00;;;6.39;100.00
18813;BME280;9534;51.140;6.296;2024-03-08T08:20:03;67414.63;;;6.45;100.00
18813;BME280;9534;51.140;6.296;2024-03-08T08:24:07;67479.25;;;6.90;100.00
18813;BME280;9534;51.140;6.296;2024-03-08T08:28:10;67507.56;;;7.22;100.00
18813;BME280;9534;51.140;6.296;2024-03-08T08:32:14;67487.94;;;7.00;100.00
18813;BME280;9534;51.140;6.296;2024-03-08T08:36:19;67569.31;;;7.71;100.00
18813;BME280;9534;51.140;6.296;2024-03-08T08:40:22;67504.59;;;7.17;100.00
18813;BME280;9534;51.140;6.296;2024-03-08T08:44:28;67458.78;;;6.72;100.00
18813;BME280;9534;51.140;6.296;2024-03-08T08:48:33;67553.34;;;7.57;100.00
18813;BME280;9534;51.140;6.296;2024-03-08T08:52:38;67542.56;;;7.48;100.00
18813;BME280;9534;51.140;6.296;2024-03-08T08:56:42;67552.22;;;7.56;100.00
18813;BME280;9534;51.140;6.296;2024-03-08T09:00:45;67597.47;;;8.01;100.00
18813;BME280;9534;51.140;6.296;2024-03-08T09:04:49;67649.91;;;8.47;100.00
18813;BME280;9534;51.140;6.296;2024-03-08T09:08:54;67678.78;;;8.69;100.00
18813;BME280;9534;51.140;6.296;2024-03-08T09:12:57;67658.16;;;8.49;100.00
18813;BME280;9534;51.140;6.296;2024-03-08T09:17:01;67646.91;;;8.42;100.00
18813;BME280;9534;51.140;6.296;2024-03-08T09:21:05;67617.28;;;8.16;100.00
18813;BME280;9534;51.140;6.296;2024-03-08T09:25:13;67785.53;;;9.65;100.00
18813;BME280;9534;51.140;6.296;2024-03-08T09:29:16;67684.91;;;8.72;100.00
18813;BME280;9534;51.140;6.296;2024-03-08T09:33:20;67681.22;;;8.74;100.00
18813;BME280;9534;51.140;6.296;2024-03-08T09:37:24;67675.53;;;8.69;100.00
18813;BME280;9534;51.140;6.296;2024-03-08T09:41:31;67689.47;;;8.76;100.00
18813;BME280;9534;51.140;6.296;2024-03-08T09:45:37;67776.97;;;9.48;100.00
18813;BME280;9534;51.140;6.296;2024-03-08T09:49:41;67772.25;;;9.51;100.00
18813;BME280;9534;51.140;6.296;2024-03-08T09:53:45;67763.59;;;9.41;100.00
18813;BME280;9534;51.140;6.296;2024-03-08T09:57:51;67750.63;;;9.32;100.00
18813;BME280;9534;51.140;6.296;2024-03-08T10:02:13;67738.50;;;9.19;100.00
18813;BME280;9534;51.140;6.296;2024-03-08T10:06:18;67896.53;;;10.57;100.00
18813;BME280;9534;51.140;6.296;2024-03-08T10:10:25;67810.91;;;9.83;100.00
18813;BME280;9534;51.140;6.296;2024-03-08T10:14:32;67778.38;;;9.54;100.00
18813;BME280;9534;51.140;6.296;2024-03-08T10:18:36;67899.81;;;10.67;100.00
18813;BME280;9534;51.140;6.296;2024-03-08T10:22:40;67842.31;;;10.10;100.00
18813;BME280;9534;51.140;6.296;2024-03-08T10:27:03;67953.34;;;11.11;100.00
18813;BME280;9534;51.140;6.296;2024-03-08T10:31:08;67941.91;;;11.02;100.00
18813;BME280;9534;51.140;6.296;2024-03-08T10:35:11;67962.44;;;11.19;100.00
18813;BME280;9534;51.140;6.296;2024-03-08T10:39:17;67943.91;;;10.99;100.00
18813;BME280;9534;51.140;6.296;2024-03-08T10:43:24;67914.50;;;10.78;100.00
18813;BME280;9534;51.140;6.296;2024-03-08T10:47:32;67880.69;;;10.46;100.00
18813;BME280;9534;51.140;6.296;2024-03-08T10:51:40;67933.91;;;10.95;100.00
18813;BME280;9534;51.140;6.296;2024-03-08T10:55:44;67875.69;;;10.44;100.00
18813;BME280;9534;51.140;6.296;2024-03-08T10:59:48;67931.91;;;10.88;100.00
18813;BME280;9534;51.140;6.296;2024-03-08T11:03:53;67924.50;;;10.82;100.00
18813;BME280;9534;51.140;6.296;2024-03-08T11:07:58;67933.91;;;10.95;100.00
18813;BME280;9534;51.140;6.296;2024-03-08T11:12:18;68008.03;;;11.66;100.00
18813;BME280;9534;51.140;6.296;2024-03-08T11:16:37;68006.88;;;11.56;100.00
18813;BME280;9534;51.140;6.296;2024-03-08T11:20:43;68068.03;;;12.09;100.00
18813;BME280;9534;51.140;6.296;2024-03-08T11:24:46;68082.91;;;12.22;100.00
18813;BME280;9534;51.140;6.296;2024-03-08T11:28:49;68018.16;;;11.63;100.00
18813;BME280;9534;51.140;6.296;2024-03-08T11:33:00;67997.88;;;11.50;100.00
18813;BME280;9534;51.140;6.296;2024-03-08T11:37:07;68088.63;;;12.27;100.00
18813;BME280;9534;51.140;6.296;2024-03-08T11:41:14;68142.25;;;12.71;100.00
18813;BME280;9534;51.140;6.296;2024-03-08T11:45:20;68083.63;;;12.25;100.00
18813;BME280;9534;51.140;6.296;2024-03-08T11:49:23;68121.38;;;12.58;100.00
18813;BME280;9534;51.140;6.296;2024-03-08T11:53:29;68135.97;;;12.66;100.00
18813;BME280;9534;51.140;6.296;2024-03-08T11:57:33;68027.91;;;11.81;100.00
18813;BME280;9534;51.140;6.296;2024-03-08T12:01:36;68119.50;;;12.54;100.00
18813;BME280;9534;51.140;6.296;2024-03-08T12:05:39;68128.94;;;12.67;100.00
18813;BME280;9534;51.140;6.296;2024-03-08T12:09:55;68087.63;;;12.29;100.00
18813;BME280;9534;51.140;6.296;2024-03-08T12:14:19;68088.19;;;12.29;100.00
18813;BME280;9534;51.140;6.296;2024-03-08T12:18:22;68074.47;;;12.17;100.00
18813;BME280;9534;51.140;6.296;2024-03-08T12:22:25;68066.06;;;12.03;100.00
18813;BME280;9534;51.140;6.296;2024-03-08T12:26:30;68108.50;;;12.42;100.00
18813;BME280;9534;51.140;6.296;2024-03-08T12:30:34;68181.03;;;13.03;100.00
18813;BME280;9534;51.140;6.296;2024-03-08T12:34:37;68154.81;;;12.92;97.71
18813;BME280;9534;51.140;6.296;2024-03-08T12:38:43;68119.50;;;12.54;99.44
18813;BME280;9534;51.140;6.296;2024-03-08T12:42:47;68055.47;;;11.98;99.26
18813;BME280;9534;51.140;6.296;2024-03-08T12:46:51;68092.78;;;12.33;100.00
18813;BME280;9534;51.140;6.296;2024-03-08T12:50:56;68053.63;;;11.94;99.96
18813;BME280;9534;51.140;6.296;2024-03-08T12:54:59;68120.66;;;12.55;100.00
18813;BME280;9534;51.140;6.296;2024-03-08T12:59:07;68155.81;;;12.90;97.92
18813;BME280;9534;51.140;6.296;2024-03-08T13:03:11;68224.09;;;13.43;99.46
18813;BME280;9534;51.140;6.296;2024-03-08T13:07:14;68110.06;;;12.41;99.78
18813;BME280;9534;51.140;6.296;2024-03-08T13:11:18;68250.56;;;13.68;100.00
18813;BME280;9534;51.140;6.296;2024-03-08T13:15:23;68172.28;;;13.02;98.80
18813;BME280;9534;51.140;6.296;2024-03-08T13:19:26;68188.88;;;13.17;98.13
18813;BME280;9534;51.140;6.296;2024-03-08T13:23:30;68206.75;;;13.35;98.45
18813;BME280;9534;51.140;6.296;2024-03-08T13:27:33;68199.06;;;13.23;96.98
18813;BME280;9534;51.140;6.296;2024-03-08T13:31:42;68144.69;;;12.76;98.03
18813;BME280;9534;51.140;6.296;2024-03-08T13:35:45;68252.28;;;13.69;95.96
18813;BME280;9534;51.140;6.296;2024-03-08T13:39:52;68247.00;;;13.62;96.88
18813;BME280;9534;51.140;6.296;2024-03-08T13:43:56;68209.34;;;13.42;98.96
18813;BME280;9534;51.140;6.296;2024-03-08T13:48:01;68222.50;;;13.44;96.32
18813;BME280;9534;51.140;6.296;2024-03-08T13:52:06;68213.78;;;13.34;96.11
18813;BME280;9534;51.140;6.296;2024-03-08T13:56:11;68266.00;;;13.81;94.12
18813;BME280;9534;51.140;6.296;2024-03-08T14:00:17;68240.25;;;13.59;96.69
18813;BME280;9534;51.140;6.296;2024-03-08T14:04:25;68244.84;;;13.63;94.14
18813;BME280;9534;51.140;6.296;2024-03-08T14:08:30;68232.25;;;13.52;94.96
18813;BME280;9534;51.140;6.296;2024-03-08T14:12:35;68284.50;;;14.00;94.30
18813;BME280;9534;51.140;6.296;2024-03-08T14:16:42;68277.03;;;13.93;95.20
18813;BME280;9534;51.140;6.296;2024-03-08T14:20:51;68281.06;;;13.97;94.01
18813;BME280;9534;51.140;6.296;2024-03-08T14:24:54;68325.75;;;14.36;93.32
18813;BME280;9534;51.140;6.296;2024-03-08T14:28:58;68286.47;;;14.06;92.53
18813;BME280;9534;51.140;6.296;2024-03-08T14:33:01;68346.81;;;14.52;91.93
18813;BME280;9534;51.140;6.296;2024-03-08T14:37:08;68343.50;;;14.51;93.28
18813;BME280;9534;51.140;6.296;2024-03-08T14:41:13;68352.41;;;14.54;90.00
18813;BME280;9534;51.140;6.296;2024-03-08T14:45:17;68402.53;;;15.02;90.81
18813;BME280;9534;51.140;6.296;2024-03-08T14:49:21;68399.09;;;14.99;90.56
18813;BME280;9534;51.140;6.296;2024-03-08T14:53:37;68340.63;;;14.49;91.51
18813;BME280;9534;51.140;6.296;2024-03-08T14:57:42;68302.78;;;14.16;92.13
18813;BME280;9534;51.140;6.296;2024-03-08T15:01:47;68300.38;;;14.11;91.50
18813;BME280;9534;51.140;6.296;2024-03-08T15:05:50;68362.84;;;14.66;89.88
18813;BME280;9534;51.140;6.296;2024-03-08T15:09:57;68331.19;;;14.36;91.09
18813;BME280;9534;51.140;6.296;2024-03-08T15:14:00;68318.88;;;14.30;88.91
18813;BME280;9534;51.140;6.296;2024-03-08T15:18:05;68348.06;;;14.55;89.93
18813;BME280;9534;51.140;6.296;2024-03-08T15:22:10;68267.88;;;13.85;89.98
18813;BME280;9534;51.140;6.296;2024-03-08T15:26:15;68253.56;;;13.73;91.94
18813;BME280;9534;51.140;6.296;2024-03-08T15:30:19;68289.63;;;14.04;89.15
18813;BME280;9534;51.140;6.296;2024-03-08T15:34:24;68264.88;;;13.80;91.85
18813;BME280;9534;51.140;6.296;2024-03-08T15:38:28;68230.53;;;13.51;92.06
18813;BME280;9534;51.140;6.296;2024-03-08T15:42:32;68308.69;;;14.23;90.56
18813;BME280;9534;51.140;6.296;2024-03-08T15:46:36;68299.94;;;14.13;90.24
18813;BME280;9534;51.140;6.296;2024-03-08T15:50:39;68258.72;;;13.77;90.58
18813;BME280;9534;51.140;6.296;2024-03-08T15:54:42;68261.00;;;13.79;91.16
18813;BME280;9534;51.140;6.296;2024-03-08T15:58:46;68258.00;;;13.74;90.50
18813;BME280;9534;51.140;6.296;2024-03-08T16:02:50;68195.47;;;13.18;92.65
18813;BME280;9534;51.140;6.296;2024-03-08T16:06:54;68190.47;;;13.16;93.69
18813;BME280;9534;51.140;6.296;2024-03-08T16:10:57;68179.00;;;13.06;94.75
18813;BME280;9534;51.140;6.296;2024-03-08T16:15:02;68200.34;;;13.27;95.46
18813;BME280;9534;51.140;6.296;2024-03-08T16:19:07;68192.91;;;13.20;96.36
18813;BME280;9534;51.140;6.296;2024-03-08T16:23:10;68170.97;;;12.99;96.73
18813;BME280;9534;51.140;6.296;2024-03-08T16:27:16;68143.38;;;12.72;97.87
18813;BME280;9534;51.140;6.296;2024-03-08T16:31:21;68162.69;;;12.96;99.56
18813;BME280;9534;51.140;6.296;2024-03-08T16:35:24;68110.50;;;12.48;100.00
18813;BME280;9534;51.140;6.296;2024-03-08T16:39:27;68148.25;;;12.81;99.74
18813;BME280;9534;51.140;6.296;2024-03-08T16:43:30;68126.38;;;12.60;100.00
18813;BME280;9534;51.140;6.296;2024-03-08T16:47:36;68092.63;;;12.40;100.00
18813;BME280;9534;51.140;6.296;2024-03-08T16:51:40;68107.94;;;12.41;100.00
18813;BME280;9534;51.140;6.296;2024-03-08T16:55:43;68067.75;;;12.04;100.00
18813;BME280;9534;51.140;6.296;2024-03-08T16:59:48;68037.03;;;11.80;100.00
18813;BME280;9534;51.140;6.296;2024-03-08T17:03:55;67998.72;;;11.46;100.00
18813;BME280;9534;51.140;6.296;2024-03-08T17:08:02;67949.63;;;11.04;100.00
18813;BME280;9534;51.140;6.296;2024-03-08T17:12:07;67894.97;;;10.58;100.00
18813;BME280;9534;51.140;6.296;2024-03-08T17:16:12;67875.25;;;10.36;100.00
18813;BME280;9534;51.140;6.296;2024-03-08T17:20:18;67846.03;;;10.18;100.00
18813;BME280;9534;51.140;6.296;2024-03-08T17:24:22;67842.72;;;10.08;100.00
18813;BME280;9534;51.140;6.296;2024-03-08T17:28:26;67824.03;;;9.94;100.00
18813;BME280;9534;51.140;6.296;2024-03-08T17:32:29;67790.94;;;9.65;100.00
18813;BME280;9534;51.140;6.296;2024-03-08T17:36:36;67787.69;;;9.65;100.00
18813;BME280;9534;51.140;6.296;2024-03-08T17:40:40;67798.22;;;9.69;100.00
18813;BME280;9534;51.140;6.296;2024-03-08T17:44:46;67781.38;;;9.59;100.00
18813;BME280;9534;51.140;6.296;2024-03-08T17:48:49;67779.53;;;9.55;100.00
18813;BME280;9534;51.140;6.296;2024-03-08T17:52:57;67768.13;;;9.45;100.00
18813;BME280;9534;51.140;6.296;2024-03-08T17:57:05;67744.06;;;9.31;100.00
18813;BME280;9534;51.140;6.296;2024-03-08T18:01:08;67739.63;;;9.20;100.00
18813;BME280;9534;51.140;6.296;2024-03-08T18:05:14;67743.06;;;9.23;100.00
18813;BME280;9534;51.140;6.296;2024-03-08T18:09:19;67733.22;;;9.12;100.00
18813;BME280;9534;51.140;6.296;2024-03-08T18:13:25;67737.78;;;9.16;100.00
18813;BME280;9534;51.140;6.296;2024-03-08T18:17:28;67722.53;;;9.05;100.00
18813;BME280;9534;51.140;6.296;2024-03-08T18:21:31;67736.06;;;9.15;100.00
18813;BME280;9534;51.140;6.296;2024-03-08T18:25:35;67728.25;;;9.10;100.00
18813;BME280;9534;51.140;6.296;2024-03-08T18:29:39;67723.69;;;9.06;100.00
18813;BME280;9534;51.140;6.296;2024-03-08T18:33:42;67724.81;;;9.07;100.00
18813;BME280;9534;51.140;6.296;2024-03-08T18:37:47;67704.88;;;8.90;100.00
18813;BME280;9534;51.140;6.296;2024-03-08T18:41:53;67688.50;;;8.78;100.00
18813;BME280;9534;51.140;6.296;2024-03-08T18:45:56;67681.06;;;8.71;100.00
18813;BME280;9534;51.140;6.296;2024-03-08T18:50:01;67680.94;;;8.69;100.00
18813;BME280;9534;51.140;6.296;2024-03-08T18:54:05;67666.97;;;8.61;100.00
18813;BME280;9534;51.140;6.296;2024-03-08T18:58:10;67667.69;;;8.55;100.00
18813;BME280;9534;51.140;6.296;2024-03-08T19:02:13;67657.28;;;8.44;100.00
18813;BME280;9534;51.140;6.296;2024-03-08T19:06:18;67629.63;;;8.24;100.00
18813;BME280;9534;51.140;6.296;2024-03-08T19:10:24;67622.81;;;8.18;100.00
18813;BME280;9534;51.140;6.296;2024-03-08T19:14:29;67607.03;;;8.07;100.00
18813;BME280;9534;51.140;6.296;2024-03-08T19:18:35;67599.47;;;7.98;100.00
18813;BME280;9534;51.140;6.296;2024-03-08T19:22:38;67589.22;;;7.89;100.00
18813;BME280;9534;51.140;6.296;2024-03-08T19:26:41;67586.94;;;7.87;100.00
18813;BME280;9534;51.140;6.296;2024-03-08T19:30:51;67577.28;;;7.78;100.00
18813;BME280;9534;51.140;6.296;2024-03-08T19:34:56;67580.09;;;7.81;100.00
18813;BME280;9534;51.140;6.296;2024-03-08T19:39:01;67577.84;;;7.79;100.00
18813;BME280;9534;51.140;6.296;2024-03-08T19:43:04;67563.34;;;7.71;100.00
18813;BME280;9534;51.140;6.296;2024-03-08T19:47:10;67558.22;;;7.66;100.00
18813;BME280;9534;51.140;6.296;2024-03-08T19:51:15;67546.38;;;7.49;100.00
18813;BME280;9534;51.140;6.296;2024-03-08T19:55:19;67550.94;;;7.53;100.00
18813;BME280;9534;51.140;6.296;2024-03-08T19:59:22;67550.09;;;7.57;100.00
18813;BME280;9534;51.140;6.296;2024-03-08T20:03:27;67551.66;;;7.56;100.00
18813;BME280;9534;51.140;6.296;2024-03-08T20:07:32;67541.84;;;7.45;100.00
18813;BME280;9534;51.140;6.296;2024-03-08T20:11:35;67549.38;;;7.54;100.00
18813;BME280;9534;51.140;6.296;2024-03-08T20:15:40;67548.25;;;7.53;100.00
18813;BME280;9534;51.140;6.296;2024-03-08T20:19:49;67541.56;;;7.49;100.00
18813;BME280;9534;51.140;6.296;2024-03-08T20:23:58;67541.84;;;7.45;100.00
18813;BME280;9534;51.140;6.296;2024-03-08T20:28:04;67530.03;;;7.37;100.00
18813;BME280;9534;51.140;6.296;2024-03-08T20:32:09;67521.22;;;7.34;100.00
18813;BME280;9534;51.140;6.296;2024-03-08T20:36:17;67516.81;;;7.23;100.00
18813;BME280;9534;51.140;6.296;2024-03-08T20:40:22;67510.84;;;7.23;100.00
18813;BME280;9534;51.140;6.296;2024-03-08T20:44:42;67514.69;;;7.24;100.00
18813;BME280;9534;51.140;6.296;2024-03-08T20:48:50;67503.31;;;7.14;100.00
18813;BME280;9534;51.140;6.296;2024-03-08T20:53:03;67509.84;;;7.15;100.00
18813;BME280;9534;51.140;6.296;2024-03-08T20:57:15;67496.31;;;7.05;100.00
18813;BME280;9534;51.140;6.296;2024-03-08T21:01:20;67495.19;;;7.04;100.00
18813;BME280;9534;51.140;6.296;2024-03-08T21:05:30;67478.81;;;6.92;100.00
18813;BME280;9534;51.140;6.296;2024-03-08T21:09:43;67479.81;;;6.91;100.00
18813;BME280;9534;51.140;6.296;2024-03-08T21:14:03;67456.53;;;6.70;100.00
18813;BME280;9534;51.140;6.296;2024-03-08T21:18:07;67447.00;;;6.64;100.00
18813;BME280;9534;51.140;6.296;2024-03-08T21:22:10;67427.66;;;6.47;100.00
18813;BME280;9534;51.140;6.296;2024-03-08T21:26:15;67425.25;;;6.43;100.00
18813;BME280;9534;51.140;6.296;2024-03-08T21:30:20;67410.63;;;6.32;100.00
18813;BME280;9534;51.140;6.296;2024-03-08T21:34:23;67400.38;;;6.23;100.00
18813;BME280;9534;51.140;6.296;2024-03-08T21:38:27;67395.84;;;6.19;100.00
18813;BME280;9534;51.140;6.296;2024-03-08T21:42:32;67379.34;;;6.05;100.00
18813;BME280;9534;51.140;6.296;2024-03-08T21:46:35;67383.19;;;6.06;100.00
18813;BME280;9534;51.140;6.296;2024-03-08T21:50:38;67390.97;;;6.11;100.00
18813;BME280;9534;51.140;6.296;2024-03-08T21:54:42;67366.84;;;5.94;100.00